Terminal Aerodrome Forecast
Issued by NWS Grand Rapids, MI

Home | Current Version | Previous Version | Text Only | Print | Product List | Glossary On
Versions: 1 2 3 4 5 6 7 8 9 10 11 12 13 14 15 16 17 18 19 20
681
FTUS43 KGRR 031730
TAFGRR
TAF
KGRR 031730Z 0318/0418 23012KT P6SM FEW200
     FM040600 21009KT P6SM OVC025
     FM040800 22007KT P6SM -RA OVC015
     FM041000 27007KT 4SM -RA OVC007
     FM041400 35010G20KT P6SM -RA OVC015=

USA.gov is the U.S. government's official web portal to all federal, state and local government web resources and services.